Arcadia, Utah
Current Conditions -  °F | °C
As of 8:53 AM on Wednesday 22 Oct 2014 (Local Time) from KPUC Reporting Station
Clear Clear  
Wind Chill: 47°   Ceiling: Unl
Heat Index: 47°   Visibility: 10mi
Dew Point: 32°   Wind: 0mph
Humidity: 56%   Direction: NA
Pressure: 30.16"   Gusts: NA
Location:  39.9707°N, 110.477°W
Report Text: KPUC 221453Z AUTO 00000KT 10SM CLR 08/00 A3016 RMK AO2 SLP195 T00830000 53016 TSNO
Loading
Personal Weather Stations






























Interactive Weather Map New forecast layout! Learn more

10-Day Weather Forecast

Advertisements
Track Severe Weather on mobile